KCNO/CNO METAR and TAF weather

Enter ICAO airport designator
Station Type Date Time Source
KCNO METAR 2021/02/25 01:53 UTC NOAA

KCNO 250153Z 26007KT 10SM CLR 17/07 A2998 RMK AO2 SLP152 T01720072 $


Station Type Date Time Source
KCNO Decoded METAR 2021/02/25 01:53 UTC NOAA

CHINO AIRPORT, CA, United States (KCNO) 33-58N 117-38W 207M
Feb 24, 2021 - 08:53 PM EST / 2021.02.25 0153 UTC
Wind: from the W (260 degrees) at 8 MPH (7 KT):0
Visibility: 10 mile(s):0
Sky conditions: clear
Temperature: 63.0 F (17.2 C)
Dew Point: 45.0 F (7.2 C)
Relative Humidity: 51%
Pressure (altimeter): 29.98 in. Hg (1015 hPa)
ob: KCNO 250153Z 26007KT 10SM CLR 17/07 A2998 RMK AO2 SLP152 T01720072
cycle: 2

Station Type Date Time Source
KCNO TAF UTC NOAA

Error!

Example: see airport list